THY9314 LOWW-EDDK
Flight info
| Callsign | THY9314 |
|---|---|
| Flight time | N/A |
| Altitude | 32000 |
| Route | BUWUT DCT DITIS DCT IPDUL DCT OKG L984 ASKIK DCT GULKO |
| Aircraft | A333/H-V/N |
Departure
| Time | N/A |
|---|---|
| Airport | Vienna International Airport (LOWW) |
Arrival
| Time | 2026-05-05 08:08 |
|---|---|
| Airport | Cologne Bonn Airport (EDDK) |
| Time | Latitude | Longitude | Altitude | Speed | Heading |
|---|---|---|---|---|---|
| 2026-05-05 06:45 | 48.11621 | 16.57034 | 0 ft | 0 kts | 27° |
| 2026-05-05 06:51 | 48.11623 | 16.57036 | 0 ft | 2 kts | 27° |
| 2026-05-05 06:51 | 48.11670 | 16.57082 | 0 ft | 14 kts | 40° |
| 2026-05-05 06:51 | 48.11755 | 16.57213 | 0 ft | 18 kts | 60° |
| 2026-05-05 06:51 | 48.11817 | 16.57379 | 0 ft | 16 kts | 63° |
| 2026-05-05 06:52 | 48.11861 | 16.57537 | 0 ft | 14 kts | 76° |
| 2026-05-05 06:52 | 48.11880 | 16.57685 | 0 ft | 12 kts | 87° |
| 2026-05-05 06:52 | 48.11861 | 16.57759 | 0 ft | 7 kts | 124° |
| 2026-05-05 06:52 | 48.11822 | 16.57842 | 0 ft | 13 kts | 129° |
| 2026-05-05 06:53 | 48.11732 | 16.57920 | 0 ft | 19 kts | 164° |
| 2026-05-05 06:53 | 48.11378 | 16.58065 | 0 ft | 90 kts | 165° |
| 2026-05-05 06:53 | 48.10553 | 16.58402 | 0 ft | 153 kts | 166° |
| 2026-05-05 06:53 | 48.09476 | 16.58833 | 0 ft | 161 kts | 166° |
| 2026-05-05 06:54 | 48.08414 | 16.59254 | 0 ft | 161 kts | 164° |
| 2026-05-05 06:54 | 48.07360 | 16.59888 | 0 ft | 165 kts | 151° |
| 2026-05-05 06:54 | 48.06423 | 16.60857 | 0 ft | 167 kts | 140° |
| 2026-05-05 06:54 | 48.05488 | 16.62157 | 0 ft | 201 kts | 132° |
| 2026-05-05 06:55 | 48.04820 | 16.64169 | 0 ft | 238 kts | 97° |
| 2026-05-05 06:55 | 48.05021 | 16.66734 | 0 ft | 253 kts | 66° |
| 2026-05-05 06:55 | 48.05965 | 16.68698 | 0 ft | 245 kts | 43° |
| 2026-05-05 06:55 | 48.07306 | 16.70437 | 0 ft | 265 kts | 38° |
| 2026-05-05 06:56 | 48.08748 | 16.72103 | 0 ft | 258 kts | 36° |
| 2026-05-05 06:56 | 48.10214 | 16.73701 | 0 ft | 264 kts | 35° |
| 2026-05-05 06:56 | 48.11710 | 16.75293 | 0 ft | 263 kts | 35° |
| 2026-05-05 06:56 | 48.13198 | 16.76843 | 0 ft | 264 kts | 30° |
| 2026-05-05 06:57 | 48.14944 | 16.77695 | 0 ft | 268 kts | 7° |
| 2026-05-05 06:57 | 48.16812 | 16.77879 | 0 ft | 269 kts | 360° |
| 2026-05-05 06:57 | 48.18678 | 16.77817 | 0 ft | 270 kts | 356° |
| 2026-05-05 06:57 | 48.20564 | 16.77595 | 0 ft | 274 kts | 353° |
| 2026-05-05 06:58 | 48.22505 | 16.77248 | 0 ft | 284 kts | 352° |
| 2026-05-05 06:58 | 48.24450 | 16.76820 | 0 ft | 285 kts | 351° |
| 2026-05-05 06:58 | 48.26470 | 16.76324 | 0 ft | 304 kts | 350° |
| 2026-05-05 06:58 | 48.28539 | 16.75785 | 0 ft | 325 kts | 349° |
| 2026-05-05 06:59 | 48.30814 | 16.75132 | 0 ft | 343 kts | 346° |
| 2026-05-05 06:59 | 48.33177 | 16.74100 | 0 ft | 360 kts | 341° |
| 2026-05-05 06:59 | 48.35547 | 16.72773 | 0 ft | 366 kts | 338° |
| 2026-05-05 06:59 | 48.37869 | 16.71280 | 0 ft | 368 kts | 335° |
| 2026-05-05 07:00 | 48.40215 | 16.69625 | 0 ft | 374 kts | 333° |
| 2026-05-05 07:00 | 48.42380 | 16.67477 | 0 ft | 375 kts | 316° |
| 2026-05-05 07:00 | 48.43941 | 16.64332 | 0 ft | 378 kts | 299° |
| 2026-05-05 07:00 | 48.45156 | 16.60786 | 0 ft | 383 kts | 295° |
| 2026-05-05 07:01 | 48.46259 | 16.57126 | 0 ft | 383 kts | 293° |
| 2026-05-05 07:01 | 48.47296 | 16.53413 | 0 ft | 385 kts | 292° |
| 2026-05-05 07:01 | 48.48300 | 16.49631 | 0 ft | 390 kts | 291° |
| 2026-05-05 07:01 | 48.49280 | 16.45815 | 0 ft | 391 kts | 291° |
| 2026-05-05 07:02 | 48.50244 | 16.41988 | 0 ft | 393 kts | 290° |
| 2026-05-05 07:02 | 48.51200 | 16.38148 | 0 ft | 397 kts | 290° |
| 2026-05-05 07:02 | 48.52168 | 16.34230 | 0 ft | 399 kts | 290° |
| 2026-05-05 07:02 | 48.53133 | 16.30303 | 0 ft | 400 kts | 290° |
| 2026-05-05 07:03 | 48.54106 | 16.26333 | 0 ft | 406 kts | 290° |
| 2026-05-05 07:03 | 48.55091 | 16.22312 | 0 ft | 412 kts | 290° |
| 2026-05-05 07:03 | 48.56099 | 16.18220 | 0 ft | 417 kts | 291° |
| 2026-05-05 07:03 | 48.57166 | 16.14141 | 0 ft | 417 kts | 292° |
| 2026-05-05 07:04 | 48.58277 | 16.10063 | 0 ft | 422 kts | 292° |
| 2026-05-05 07:04 | 48.59418 | 16.05960 | 0 ft | 426 kts | 293° |
| 2026-05-05 07:04 | 48.60580 | 16.01833 | 0 ft | 429 kts | 293° |
| 2026-05-05 07:04 | 48.61756 | 15.97686 | 0 ft | 426 kts | 293° |
| 2026-05-05 07:05 | 48.62917 | 15.93603 | 0 ft | 420 kts | 293° |
| 2026-05-05 07:05 | 48.64073 | 15.89545 | 0 ft | 421 kts | 293° |
| 2026-05-05 07:05 | 48.65234 | 15.85472 | 0 ft | 424 kts | 293° |
| 2026-05-05 07:05 | 48.66404 | 15.81364 | 0 ft | 426 kts | 293° |
| 2026-05-05 07:06 | 48.67565 | 15.77286 | 0 ft | 428 kts | 293° |
| 2026-05-05 07:06 | 48.68742 | 15.73147 | 0 ft | 429 kts | 293° |
| 2026-05-05 07:06 | 48.69924 | 15.68985 | 0 ft | 431 kts | 293° |
| 2026-05-05 07:06 | 48.71122 | 15.64761 | 0 ft | 432 kts | 293° |
| 2026-05-05 07:07 | 48.72291 | 15.60622 | 0 ft | 433 kts | 293° |
| 2026-05-05 07:07 | 48.73481 | 15.56388 | 0 ft | 439 kts | 293° |
| 2026-05-05 07:07 | 48.74680 | 15.52116 | 0 ft | 445 kts | 292° |
| 2026-05-05 07:07 | 48.75898 | 15.47766 | 0 ft | 451 kts | 292° |
| 2026-05-05 07:08 | 48.77133 | 15.43355 | 0 ft | 456 kts | 292° |
| 2026-05-05 07:08 | 48.78377 | 15.38906 | 0 ft | 461 kts | 292° |
| 2026-05-05 07:08 | 48.79724 | 15.34455 | 0 ft | 465 kts | 298° |
| 2026-05-05 07:08 | 48.81344 | 15.30209 | 0 ft | 469 kts | 301° |
| 2026-05-05 07:09 | 48.83110 | 15.26030 | 0 ft | 472 kts | 303° |
| 2026-05-05 07:09 | 48.84962 | 15.21873 | 0 ft | 474 kts | 304° |
| 2026-05-05 07:09 | 48.86856 | 15.17764 | 0 ft | 476 kts | 305° |
| 2026-05-05 07:09 | 48.88744 | 15.13639 | 0 ft | 477 kts | 304° |
| 2026-05-05 07:10 | 48.90579 | 15.09424 | 0 ft | 477 kts | 303° |
| 2026-05-05 07:10 | 48.92354 | 15.05240 | 0 ft | 478 kts | 302° |
| 2026-05-05 07:10 | 48.94141 | 15.00975 | 0 ft | 478 kts | 302° |
| 2026-05-05 07:10 | 48.95913 | 14.96711 | 0 ft | 477 kts | 302° |
| 2026-05-05 07:11 | 48.97685 | 14.92425 | 0 ft | 478 kts | 302° |
| 2026-05-05 07:11 | 48.99456 | 14.88123 | 0 ft | 480 kts | 302° |
| 2026-05-05 07:11 | 49.01224 | 14.83814 | 0 ft | 481 kts | 302° |
| 2026-05-05 07:11 | 49.03006 | 14.79463 | 0 ft | 483 kts | 302° |
| 2026-05-05 07:12 | 49.04788 | 14.75104 | 0 ft | 485 kts | 302° |
| 2026-05-05 07:12 | 49.06570 | 14.70735 | 0 ft | 487 kts | 302° |
| 2026-05-05 07:12 | 49.08361 | 14.66337 | 0 ft | 488 kts | 302° |
| 2026-05-05 07:12 | 49.10158 | 14.61916 | 0 ft | 489 kts | 301° |
| 2026-05-05 07:13 | 49.11928 | 14.57551 | 0 ft | 490 kts | 301° |
| 2026-05-05 07:13 | 49.13746 | 14.53062 | 0 ft | 491 kts | 301° |
| 2026-05-05 07:13 | 49.15540 | 14.48627 | 0 ft | 491 kts | 301° |
| 2026-05-05 07:13 | 49.17331 | 14.44188 | 0 ft | 491 kts | 301° |
| 2026-05-05 07:14 | 49.19104 | 14.39788 | 0 ft | 492 kts | 301° |
| 2026-05-05 07:14 | 49.20893 | 14.35340 | 0 ft | 492 kts | 301° |
| 2026-05-05 07:14 | 49.22682 | 14.30883 | 0 ft | 492 kts | 301° |
| 2026-05-05 07:14 | 49.24471 | 14.26420 | 0 ft | 492 kts | 301° |
| 2026-05-05 07:15 | 49.26259 | 14.21952 | 0 ft | 492 kts | 301° |
| 2026-05-05 07:15 | 49.28043 | 14.17486 | 0 ft | 492 kts | 301° |
| 2026-05-05 07:15 | 49.29825 | 14.13016 | 0 ft | 492 kts | 301° |
| 2026-05-05 07:15 | 49.31611 | 14.08528 | 0 ft | 492 kts | 301° |
| 2026-05-05 07:16 | 49.33393 | 14.04044 | 0 ft | 492 kts | 301° |
| 2026-05-05 07:16 | 49.35172 | 13.99560 | 0 ft | 492 kts | 301° |
| 2026-05-05 07:16 | 49.36948 | 13.95075 | 0 ft | 492 kts | 301° |
| 2026-05-05 07:16 | 49.38724 | 13.90581 | 0 ft | 492 kts | 301° |
| 2026-05-05 07:17 | 49.40470 | 13.86067 | 0 ft | 491 kts | 297° |
| 2026-05-05 07:17 | 49.41705 | 13.81196 | 0 ft | 491 kts | 287° |
| 2026-05-05 07:17 | 49.42626 | 13.76122 | 0 ft | 491 kts | 284° |
| 2026-05-05 07:17 | 49.43453 | 13.71037 | 0 ft | 491 kts | 283° |
| 2026-05-05 07:18 | 49.44242 | 13.65918 | 0 ft | 491 kts | 283° |
| 2026-05-05 07:18 | 49.45005 | 13.60800 | 0 ft | 492 kts | 283° |
| 2026-05-05 07:18 | 49.45752 | 13.55685 | 0 ft | 492 kts | 282° |
| 2026-05-05 07:18 | 49.46484 | 13.50608 | 0 ft | 492 kts | 282° |
| 2026-05-05 07:19 | 49.47225 | 13.45419 | 0 ft | 492 kts | 282° |
| 2026-05-05 07:19 | 49.47946 | 13.40339 | 0 ft | 492 kts | 282° |
| 2026-05-05 07:19 | 49.48680 | 13.35144 | 0 ft | 492 kts | 282° |
| 2026-05-05 07:19 | 49.49392 | 13.30071 | 0 ft | 492 kts | 282° |
| 2026-05-05 07:20 | 49.50113 | 13.24918 | 0 ft | 492 kts | 282° |
| 2026-05-05 07:20 | 49.50829 | 13.19773 | 0 ft | 492 kts | 282° |
| 2026-05-05 07:20 | 49.51544 | 13.14615 | 0 ft | 492 kts | 282° |
| 2026-05-05 07:20 | 49.52255 | 13.09468 | 0 ft | 492 kts | 282° |
| 2026-05-05 07:21 | 49.52963 | 13.04321 | 0 ft | 492 kts | 282° |
| 2026-05-05 07:21 | 49.53669 | 12.99173 | 0 ft | 492 kts | 282° |
| 2026-05-05 07:21 | 49.54372 | 12.94020 | 0 ft | 492 kts | 282° |
| 2026-05-05 07:21 | 49.55073 | 12.88865 | 0 ft | 492 kts | 282° |
| 2026-05-05 07:22 | 49.55772 | 12.83706 | 0 ft | 492 kts | 282° |
| 2026-05-05 07:22 | 49.56467 | 12.78551 | 0 ft | 492 kts | 282° |
| 2026-05-05 07:22 | 49.57163 | 12.73380 | 0 ft | 492 kts | 282° |
| 2026-05-05 07:22 | 49.57847 | 12.68271 | 0 ft | 492 kts | 281° |
| 2026-05-05 07:23 | 49.58543 | 12.63058 | 0 ft | 492 kts | 281° |
| 2026-05-05 07:23 | 49.59222 | 12.57948 | 0 ft | 492 kts | 281° |
| 2026-05-05 07:23 | 49.59915 | 12.52714 | 0 ft | 492 kts | 281° |
| 2026-05-05 07:23 | 49.60587 | 12.47622 | 0 ft | 492 kts | 281° |
| 2026-05-05 07:24 | 49.61264 | 12.42467 | 0 ft | 492 kts | 281° |
| 2026-05-05 07:24 | 49.61945 | 12.37267 | 0 ft | 492 kts | 281° |
| 2026-05-05 07:24 | 49.62618 | 12.32110 | 0 ft | 492 kts | 281° |
| 2026-05-05 07:24 | 49.63292 | 12.26928 | 0 ft | 492 kts | 281° |
| 2026-05-05 07:25 | 49.63962 | 12.21750 | 0 ft | 492 kts | 281° |
| 2026-05-05 07:25 | 49.64629 | 12.16578 | 0 ft | 492 kts | 281° |
| 2026-05-05 07:25 | 49.65295 | 12.11397 | 0 ft | 492 kts | 281° |
| 2026-05-05 07:25 | 49.65949 | 12.06284 | 0 ft | 492 kts | 281° |
| 2026-05-05 07:26 | 49.66609 | 12.01109 | 0 ft | 492 kts | 281° |
| 2026-05-05 07:26 | 49.67267 | 11.95930 | 0 ft | 492 kts | 281° |
| 2026-05-05 07:26 | 49.67924 | 11.90738 | 0 ft | 492 kts | 281° |
| 2026-05-05 07:26 | 49.68577 | 11.85562 | 0 ft | 492 kts | 281° |
| 2026-05-05 07:27 | 49.69228 | 11.80380 | 0 ft | 492 kts | 281° |
| 2026-05-05 07:27 | 49.69878 | 11.75185 | 0 ft | 492 kts | 281° |
| 2026-05-05 07:27 | 49.70523 | 11.70002 | 0 ft | 492 kts | 281° |
| 2026-05-05 07:27 | 49.71168 | 11.64814 | 0 ft | 492 kts | 281° |
| 2026-05-05 07:28 | 49.71789 | 11.59784 | 0 ft | 492 kts | 281° |
| 2026-05-05 07:28 | 49.72403 | 11.54804 | 0 ft | 492 kts | 281° |
| 2026-05-05 07:28 | 49.73040 | 11.49613 | 0 ft | 492 kts | 281° |
| 2026-05-05 07:28 | 49.73676 | 11.44412 | 0 ft | 492 kts | 281° |
| 2026-05-05 07:29 | 49.74300 | 11.39281 | 0 ft | 492 kts | 280° |
| 2026-05-05 07:29 | 49.74931 | 11.34078 | 0 ft | 492 kts | 281° |
| 2026-05-05 07:29 | 49.75559 | 11.28882 | 0 ft | 492 kts | 281° |
| 2026-05-05 07:29 | 49.76183 | 11.23696 | 0 ft | 492 kts | 280° |
| 2026-05-05 07:30 | 49.76807 | 11.18485 | 0 ft | 492 kts | 280° |
| 2026-05-05 07:30 | 49.78048 | 11.08072 | 0 ft | 492 kts | 280° |
| 2026-05-05 07:30 | 49.78664 | 11.02868 | 0 ft | 492 kts | 280° |
| 2026-05-05 07:31 | 49.79277 | 10.97661 | 0 ft | 492 kts | 280° |
| 2026-05-05 07:31 | 49.79889 | 10.92452 | 0 ft | 492 kts | 280° |
| 2026-05-05 07:31 | 49.80500 | 10.87233 | 0 ft | 492 kts | 280° |
| 2026-05-05 07:31 | 49.81107 | 10.82020 | 0 ft | 492 kts | 280° |
| 2026-05-05 07:32 | 49.81711 | 10.76812 | 0 ft | 492 kts | 280° |
| 2026-05-05 07:32 | 49.82306 | 10.71661 | 0 ft | 492 kts | 280° |
| 2026-05-05 07:32 | 49.82912 | 10.66385 | 0 ft | 492 kts | 280° |
| 2026-05-05 07:32 | 49.83502 | 10.61238 | 0 ft | 492 kts | 280° |
| 2026-05-05 07:33 | 49.84098 | 10.56009 | 0 ft | 492 kts | 280° |
| 2026-05-05 07:33 | 49.84693 | 10.50777 | 0 ft | 492 kts | 280° |
| 2026-05-05 07:33 | 49.85282 | 10.45562 | 0 ft | 492 kts | 280° |
| 2026-05-05 07:33 | 49.85870 | 10.40341 | 0 ft | 492 kts | 280° |
| 2026-05-05 07:34 | 49.86457 | 10.35112 | 0 ft | 492 kts | 279° |
| 2026-05-05 07:34 | 49.87038 | 10.29908 | 0 ft | 492 kts | 279° |
| 2026-05-05 07:34 | 49.87619 | 10.24684 | 0 ft | 492 kts | 279° |
| 2026-05-05 07:34 | 49.88200 | 10.19438 | 0 ft | 492 kts | 279° |
| 2026-05-05 07:35 | 49.88776 | 10.14212 | 0 ft | 492 kts | 279° |
| 2026-05-05 07:35 | 49.89156 | 10.10748 | 0 ft | 492 kts | 279° |
| 2026-05-05 07:35 | 49.89920 | 10.03761 | 0 ft | 492 kts | 279° |
| 2026-05-05 07:35 | 49.90481 | 9.98612 | 0 ft | 492 kts | 279° |
| 2026-05-05 07:36 | 49.91056 | 9.93302 | 0 ft | 492 kts | 279° |
| 2026-05-05 07:36 | 49.91430 | 9.89834 | 0 ft | 492 kts | 279° |
| 2026-05-05 07:36 | 49.92176 | 9.82891 | 0 ft | 492 kts | 279° |
| 2026-05-05 07:36 | 49.92735 | 9.77663 | 0 ft | 492 kts | 279° |
| 2026-05-05 07:37 | 49.93291 | 9.72434 | 0 ft | 492 kts | 279° |
| 2026-05-05 07:37 | 49.93661 | 9.68946 | 0 ft | 492 kts | 279° |
| 2026-05-05 07:37 | 49.94215 | 9.63704 | 0 ft | 492 kts | 279° |
| 2026-05-05 07:37 | 49.94766 | 9.58464 | 0 ft | 492 kts | 279° |
| 2026-05-05 07:38 | 49.95312 | 9.53249 | 0 ft | 496 kts | 279° |
| 2026-05-05 07:38 | 49.95852 | 9.48065 | 0 ft | 478 kts | 279° |
| 2026-05-05 07:38 | 49.96370 | 9.43070 | 0 ft | 464 kts | 279° |
| 2026-05-05 07:38 | 49.96881 | 9.38184 | 0 ft | 453 kts | 281° |
| 2026-05-05 07:39 | 49.97684 | 9.33612 | 0 ft | 443 kts | 289° |
| 2026-05-05 07:39 | 49.98726 | 9.29179 | 0 ft | 434 kts | 291° |
| 2026-05-05 07:39 | 49.99823 | 9.24852 | 0 ft | 427 kts | 291° |
| 2026-05-05 07:39 | 50.00929 | 9.20597 | 0 ft | 420 kts | 292° |
| 2026-05-05 07:40 | 50.02025 | 9.16427 | 0 ft | 414 kts | 292° |
| 2026-05-05 07:40 | 50.03112 | 9.12317 | 0 ft | 408 kts | 292° |
| 2026-05-05 07:40 | 50.04189 | 9.08254 | 0 ft | 404 kts | 292° |
| 2026-05-05 07:40 | 50.05242 | 9.04282 | 0 ft | 399 kts | 292° |
| 2026-05-05 07:41 | 50.06284 | 9.00354 | 0 ft | 395 kts | 292° |
| 2026-05-05 07:41 | 50.07328 | 8.96413 | 0 ft | 392 kts | 292° |
| 2026-05-05 07:41 | 50.08356 | 8.92533 | 0 ft | 389 kts | 292° |
| 2026-05-05 07:41 | 50.09369 | 8.88707 | 0 ft | 386 kts | 292° |
| 2026-05-05 07:42 | 50.10382 | 8.84878 | 0 ft | 383 kts | 292° |
| 2026-05-05 07:42 | 50.11394 | 8.81052 | 0 ft | 381 kts | 292° |
| 2026-05-05 07:42 | 50.12387 | 8.77291 | 0 ft | 378 kts | 292° |
| 2026-05-05 07:42 | 50.13387 | 8.73504 | 0 ft | 376 kts | 292° |
| 2026-05-05 07:43 | 50.14373 | 8.69766 | 0 ft | 374 kts | 292° |
| 2026-05-05 07:43 | 50.15362 | 8.66014 | 0 ft | 372 kts | 292° |
| 2026-05-05 07:43 | 50.16331 | 8.62334 | 0 ft | 371 kts | 292° |
| 2026-05-05 07:43 | 50.17309 | 8.58621 | 0 ft | 369 kts | 292° |
| 2026-05-05 07:44 | 50.18280 | 8.54927 | 0 ft | 367 kts | 292° |
| 2026-05-05 07:44 | 50.19248 | 8.51245 | 0 ft | 366 kts | 292° |
| 2026-05-05 07:44 | 50.20211 | 8.47576 | 0 ft | 365 kts | 292° |
| 2026-05-05 07:44 | 50.21173 | 8.43912 | 0 ft | 363 kts | 292° |
| 2026-05-05 07:45 | 50.22130 | 8.40262 | 0 ft | 362 kts | 292° |
| 2026-05-05 07:45 | 50.23080 | 8.36637 | 0 ft | 360 kts | 292° |
| 2026-05-05 07:45 | 50.24018 | 8.33052 | 0 ft | 359 kts | 292° |
| 2026-05-05 07:45 | 50.24958 | 8.29459 | 0 ft | 357 kts | 292° |
| 2026-05-05 07:46 | 50.25888 | 8.25904 | 0 ft | 356 kts | 292° |
| 2026-05-05 07:46 | 50.26821 | 8.22333 | 0 ft | 354 kts | 292° |
| 2026-05-05 07:46 | 50.27751 | 8.18769 | 0 ft | 353 kts | 292° |
| 2026-05-05 07:46 | 50.28677 | 8.15218 | 0 ft | 351 kts | 292° |
| 2026-05-05 07:47 | 50.29595 | 8.11699 | 0 ft | 349 kts | 292° |
| 2026-05-05 07:47 | 50.30507 | 8.08196 | 0 ft | 348 kts | 292° |
| 2026-05-05 07:47 | 50.31417 | 8.04703 | 0 ft | 346 kts | 292° |
| 2026-05-05 07:47 | 50.32323 | 8.01219 | 0 ft | 344 kts | 292° |
| 2026-05-05 07:48 | 50.33218 | 7.97777 | 0 ft | 343 kts | 292° |
| 2026-05-05 07:48 | 50.34114 | 7.94327 | 0 ft | 341 kts | 292° |
| 2026-05-05 07:48 | 50.35006 | 7.90892 | 0 ft | 339 kts | 292° |
| 2026-05-05 07:48 | 50.35888 | 7.87489 | 0 ft | 334 kts | 292° |
| 2026-05-05 07:49 | 50.36738 | 7.84213 | 0 ft | 322 kts | 292° |
| 2026-05-05 07:49 | 50.37563 | 7.81029 | 0 ft | 309 kts | 292° |
| 2026-05-05 07:49 | 50.38362 | 7.77942 | 0 ft | 295 kts | 292° |
| 2026-05-05 07:49 | 50.39111 | 7.75052 | 0 ft | 283 kts | 292° |
| 2026-05-05 07:50 | 50.39833 | 7.72264 | 0 ft | 271 kts | 292° |
| 2026-05-05 07:50 | 50.40595 | 7.69628 | 0 ft | 259 kts | 297° |
| 2026-05-05 07:50 | 50.41449 | 7.67208 | 0 ft | 251 kts | 300° |
| 2026-05-05 07:50 | 50.42326 | 7.64866 | 0 ft | 245 kts | 303° |
| 2026-05-05 07:51 | 50.43316 | 7.62713 | 0 ft | 241 kts | 308° |
| 2026-05-05 07:51 | 50.44358 | 7.60671 | 0 ft | 238 kts | 309° |
| 2026-05-05 07:51 | 50.45405 | 7.58679 | 0 ft | 236 kts | 309° |
| 2026-05-05 07:51 | 50.46454 | 7.56704 | 0 ft | 235 kts | 309° |
| 2026-05-05 07:52 | 50.47502 | 7.54744 | 0 ft | 234 kts | 309° |
| 2026-05-05 07:52 | 50.48546 | 7.52796 | 0 ft | 233 kts | 310° |
| 2026-05-05 07:52 | 50.49587 | 7.50855 | 0 ft | 232 kts | 310° |
| 2026-05-05 07:52 | 50.50618 | 7.48936 | 0 ft | 232 kts | 310° |
| 2026-05-05 07:53 | 50.51657 | 7.47003 | 0 ft | 231 kts | 310° |
| 2026-05-05 07:53 | 50.52693 | 7.45074 | 0 ft | 230 kts | 310° |
| 2026-05-05 07:53 | 50.53723 | 7.43152 | 0 ft | 230 kts | 310° |
| 2026-05-05 07:53 | 50.54649 | 7.41424 | 0 ft | 230 kts | 310° |
| 2026-05-05 07:54 | 50.55668 | 7.39525 | 0 ft | 229 kts | 310° |
| 2026-05-05 07:54 | 50.56694 | 7.37612 | 0 ft | 229 kts | 310° |
| 2026-05-05 07:54 | 50.57701 | 7.35730 | 0 ft | 228 kts | 309° |
| 2026-05-05 07:54 | 50.58723 | 7.33821 | 0 ft | 228 kts | 310° |
| 2026-05-05 07:55 | 50.59746 | 7.31912 | 0 ft | 227 kts | 309° |
| 2026-05-05 07:55 | 50.60765 | 7.30012 | 0 ft | 226 kts | 311° |
| 2026-05-05 07:55 | 50.61887 | 7.28277 | 0 ft | 226 kts | 318° |
| 2026-05-05 07:55 | 50.63004 | 7.26768 | 0 ft | 226 kts | 320° |
| 2026-05-05 07:56 | 50.64078 | 7.25363 | 0 ft | 226 kts | 320° |
| 2026-05-05 07:56 | 50.65286 | 7.23806 | 0 ft | 225 kts | 320° |
| 2026-05-05 07:56 | 50.66501 | 7.22249 | 0 ft | 225 kts | 320° |
| 2026-05-05 07:56 | 50.67714 | 7.20702 | 0 ft | 225 kts | 321° |
| 2026-05-05 07:57 | 50.68919 | 7.19167 | 0 ft | 224 kts | 321° |
| 2026-05-05 07:57 | 50.70137 | 7.17617 | 0 ft | 224 kts | 321° |
| 2026-05-05 07:57 | 50.71345 | 7.16081 | 0 ft | 223 kts | 321° |
| 2026-05-05 07:57 | 50.72555 | 7.14542 | 0 ft | 223 kts | 321° |
| 2026-05-05 07:58 | 50.73777 | 7.13033 | 0 ft | 222 kts | 322° |
| 2026-05-05 07:58 | 50.75014 | 7.11576 | 0 ft | 221 kts | 323° |
| 2026-05-05 07:58 | 50.76251 | 7.10143 | 0 ft | 220 kts | 323° |
| 2026-05-05 07:58 | 50.77465 | 7.08747 | 0 ft | 219 kts | 323° |
| 2026-05-05 07:59 | 50.78683 | 7.07350 | 0 ft | 219 kts | 323° |
| 2026-05-05 07:59 | 50.79915 | 7.05941 | 0 ft | 218 kts | 323° |
| 2026-05-05 07:59 | 50.81141 | 7.04539 | 0 ft | 217 kts | 323° |
| 2026-05-05 07:59 | 50.82367 | 7.03136 | 0 ft | 217 kts | 323° |
| 2026-05-05 08:00 | 50.83525 | 7.01811 | 0 ft | 217 kts | 323° |
| 2026-05-05 08:00 | 50.84739 | 7.00420 | 0 ft | 216 kts | 323° |
| 2026-05-05 08:00 | 50.85960 | 6.99023 | 0 ft | 216 kts | 323° |
| 2026-05-05 08:00 | 50.87175 | 6.97631 | 0 ft | 215 kts | 324° |
| 2026-05-05 08:01 | 50.88467 | 6.96493 | 0 ft | 215 kts | 336° |
| 2026-05-05 08:01 | 50.89846 | 6.95600 | 0 ft | 215 kts | 338° |
| 2026-05-05 08:01 | 50.91243 | 6.94783 | 0 ft | 214 kts | 344° |
| 2026-05-05 08:01 | 50.92687 | 6.94362 | 0 ft | 212 kts | 352° |
| 2026-05-05 08:02 | 50.94148 | 6.94097 | 0 ft | 210 kts | 354° |
| 2026-05-05 08:02 | 50.95595 | 6.93870 | 0 ft | 208 kts | 354° |
| 2026-05-05 08:02 | 50.97007 | 6.93576 | 0 ft | 201 kts | 342° |
| 2026-05-05 08:02 | 50.98167 | 6.92422 | 0 ft | 196 kts | 319° |
| 2026-05-05 08:03 | 50.99291 | 6.91325 | 0 ft | 194 kts | 346° |
| 2026-05-05 08:03 | 51.00601 | 6.91549 | 0 ft | 192 kts | 28° |
| 2026-05-05 08:03 | 51.01463 | 6.93049 | 0 ft | 183 kts | 69° |
| 2026-05-05 08:03 | 51.01775 | 6.94962 | 0 ft | 176 kts | 79° |
| 2026-05-05 08:04 | 51.01737 | 6.96812 | 0 ft | 172 kts | 114° |
| 2026-05-05 08:04 | 51.01094 | 6.98289 | 0 ft | 159 kts | 130° |
| 2026-05-05 08:04 | 51.00265 | 6.99387 | 0 ft | 157 kts | 158° |
| 2026-05-05 08:04 | 50.99229 | 7.00062 | 0 ft | 156 kts | 159° |
| 2026-05-05 08:05 | 50.98258 | 7.00676 | 0 ft | 152 kts | 160° |
| 2026-05-05 08:05 | 50.97263 | 7.01293 | 0 ft | 153 kts | 160° |
| 2026-05-05 08:05 | 50.96276 | 7.01887 | 0 ft | 151 kts | 160° |
| 2026-05-05 08:05 | 50.95349 | 7.02686 | 0 ft | 152 kts | 146° |
| 2026-05-05 08:06 | 50.94497 | 7.03661 | 0 ft | 151 kts | 144° |
| 2026-05-05 08:06 | 50.93651 | 7.04688 | 0 ft | 149 kts | 141° |
| 2026-05-05 08:06 | 50.92915 | 7.05738 | 0 ft | 140 kts | 136° |
| 2026-05-05 08:06 | 50.92233 | 7.06821 | 0 ft | 140 kts | 136° |
| 2026-05-05 08:07 | 50.91516 | 7.07864 | 0 ft | 138 kts | 138° |
| 2026-05-05 08:07 | 50.90800 | 7.08902 | 0 ft | 142 kts | 137° |
| 2026-05-05 08:07 | 50.90081 | 7.09964 | 0 ft | 138 kts | 137° |
| 2026-05-05 08:07 | 50.89382 | 7.10987 | 0 ft | 140 kts | 138° |
| 2026-05-05 08:08 | 50.88641 | 7.12051 | 0 ft | 143 kts | 138° |
| 2026-05-05 08:08 | 50.87933 | 7.13073 | 0 ft | 139 kts | 137° |
| 2026-05-05 08:08 | 50.87391 | 7.13866 | 0 ft | 56 kts | 137° |
| 2026-05-05 08:08 | 50.87122 | 7.14248 | 0 ft | 47 kts | 138° |
| 2026-05-05 08:09 | 50.86963 | 7.14476 | 0 ft | 16 kts | 147° |
| 2026-05-05 08:09 | 50.86889 | 7.14457 | 0 ft | 10 kts | 241° |
| 2026-05-05 08:09 | 50.86884 | 7.14354 | 0 ft | 7 kts | 281° |
| 2026-05-05 08:09 | 50.86898 | 7.14240 | 0 ft | 15 kts | 281° |
| 2026-05-05 08:10 | 50.86926 | 7.14061 | 0 ft | 19 kts | 284° |
| 2026-05-05 08:10 | 50.86976 | 7.13852 | 0 ft | 18 kts | 311° |
| 2026-05-05 08:10 | 50.87084 | 7.13699 | 0 ft | 23 kts | 317° |
| 2026-05-05 08:10 | 50.87206 | 7.13518 | 0 ft | 24 kts | 317° |
| 2026-05-05 08:11 | 50.87332 | 7.13334 | 0 ft | 25 kts | 317° |
| 2026-05-05 08:11 | 50.87444 | 7.13169 | 0 ft | 22 kts | 317° |
| 2026-05-05 08:11 | 50.87562 | 7.12995 | 0 ft | 24 kts | 317° |
| 2026-05-05 08:11 | 50.87688 | 7.12808 | 0 ft | 26 kts | 317° |
| 2026-05-05 08:12 | 50.87836 | 7.12643 | 0 ft | 26 kts | 337° |
| 2026-05-05 08:12 | 50.88008 | 7.12566 | 0 ft | 19 kts | 339° |
| 2026-05-05 08:12 | 50.88096 | 7.12452 | 0 ft | 17 kts | 310° |
| 2026-05-05 08:12 | 50.88173 | 7.12296 | 0 ft | 17 kts | 296° |
| 2026-05-05 08:13 | 50.88153 | 7.12150 | 0 ft | 12 kts | 221° |
| 2026-05-05 08:13 | 50.88107 | 7.12096 | 0 ft | 0 kts | 216° |
| 2026-05-05 08:13 | 50.88106 | 7.12096 | 0 ft | 0 kts | 216° |